createdAt,value
2019-05-29T00:03:06.264Z,6.08
2019-05-29T00:08:10.392Z,6.17
2019-05-29T00:13:14.506Z,6.05
2019-05-29T00:18:18.801Z,5.50
2019-05-29T00:23:21.910Z,6.12
2019-05-29T00:28:25.195Z,6.47
2019-05-29T00:33:28.295Z,7.12
2019-05-29T00:38:31.392Z,8.17
2019-05-29T00:43:34.678Z,7.95
2019-05-29T00:48:37.802Z,7.73
2019-05-29T00:53:40.943Z,7.53
2019-05-29T00:58:44.019Z,6.62
2019-05-29T01:03:47.185Z,5.85
2019-05-29T01:08:50.911Z,6.28
2019-05-29T01:13:53.976Z,6.25
2019-05-29T01:19:16.549Z,6.45
2019-05-29T01:24:20.636Z,6.80
2019-05-29T01:29:25.319Z,6.78
2019-05-29T01:34:29.792Z,7.80
2019-05-29T01:39:34.165Z,8.93
2019-05-29T01:44:37.376Z,7.15
2019-05-29T01:49:43.269Z,6.83
2019-05-29T01:54:47.475Z,7.33
2019-05-29T01:59:50.697Z,7.75
2019-05-29T02:04:53.867Z,6.85
2019-05-29T02:09:59.277Z,6.62
2019-05-29T02:15:04.302Z,6.20
2019-05-29T02:20:08.300Z,6.62
2019-05-29T02:25:11.870Z,6.30
2019-05-29T02:30:15.160Z,6.75
2019-05-29T02:35:20.075Z,7.33
2019-05-29T02:40:27.540Z,8.10
2019-05-29T02:45:50.275Z,7.33
2019-05-29T02:50:34.605Z,7.75
2019-05-29T02:55:37.681Z,6.65
2019-05-29T03:00:55.937Z,6.95
2019-05-29T03:05:59.000Z,7.22
2019-05-29T03:11:02.131Z,6.80
2019-05-29T03:16:11.208Z,7.00
2019-05-29T03:21:10.255Z,6.95
2019-05-29T03:26:13.352Z,7.97
2019-05-29T03:31:16.506Z,7.37
2019-05-29T03:36:19.761Z,7.50
2019-05-29T03:41:24.286Z,6.22
2019-05-29T03:46:35.508Z,6.00
2019-05-29T03:51:34.647Z,6.37
2019-05-29T03:56:38.900Z,7.30
2019-05-29T04:01:42.110Z,6.75
2019-05-29T04:06:47.418Z,6.42
2019-05-29T04:11:52.327Z,5.12
2019-05-29T04:17:00.276Z,3.95
2019-05-29T04:22:10.196Z,3.42
2019-05-29T04:27:16.927Z,3.12
2019-05-29T04:32:21.942Z,1.98
2019-05-29T04:37:26.493Z,1.33
2019-05-29T04:42:31.966Z,0.80
2019-05-29T04:47:35.193Z,0.60
2019-05-29T04:52:43.421Z,0.50
2019-05-29T04:57:50.525Z,0.60
2019-05-29T05:02:51.749Z,0.37
2019-05-29T05:07:54.936Z,0.50
2019-05-29T05:12:58.102Z,0.60
2019-05-29T05:18:04.025Z,0.70
2019-05-29T05:23:07.179Z,0.80
2019-05-29T05:28:12.801Z,0.65
2019-05-29T05:33:15.860Z,0.82
2019-05-29T05:38:18.993Z,0.70
2019-05-29T05:43:24.346Z,0.70
2019-05-29T05:48:27.084Z,0.60
2019-05-29T05:53:31.229Z,0.78
2019-05-29T05:58:35.703Z,0.95
2019-05-29T06:03:40.596Z,1.15
2019-05-29T06:08:43.750Z,0.70
2019-05-29T06:13:48.500Z,0.85
2019-05-29T06:18:51.451Z,0.72
2019-05-29T06:23:54.513Z,0.80
2019-05-29T06:28:57.640Z,0.50
2019-05-29T06:34:00.671Z,0.80
2019-05-29T06:39:06.035Z,0.68
2019-05-29T06:44:09.053Z,0.80
2019-05-29T06:49:12.019Z,0.60
2019-05-29T06:54:14.995Z,0.53
2019-05-29T06:59:18.024Z,0.60
2019-05-29T07:04:20.997Z,0.50
2019-05-29T07:09:23.960Z,0.50
2019-05-29T07:14:28.426Z,0.62
2019-05-29T07:19:47.650Z,0.65
2019-05-29T07:24:37.041Z,0.70
2019-05-29T07:29:41.114Z,0.55
2019-05-29T07:34:57.839Z,0.70
2019-05-29T07:39:49.469Z,0.63
2019-05-29T07:44:52.543Z,0.50
2019-05-29T07:49:55.626Z,0.70
2019-05-29T07:54:58.855Z,0.60
2019-05-29T08:00:03.351Z,0.70
2019-05-29T08:05:09.870Z,0.70
2019-05-29T08:10:13.188Z,1.65
2019-05-29T08:15:16.361Z,0.50
2019-05-29T08:20:19.803Z,0.85
2019-05-29T08:25:22.899Z,0.70
2019-05-29T08:30:25.983Z,0.60
2019-05-29T08:35:29.156Z,0.57
2019-05-29T08:40:32.937Z,0.40
2019-05-29T08:45:36.066Z,0.53
2019-05-29T08:50:39.153Z,0.65
2019-05-29T08:55:42.337Z,0.53
2019-05-29T09:00:49.767Z,0.62
2019-05-29T09:06:04.961Z,0.78
2019-05-29T09:10:55.989Z,0.60
2019-05-29T09:15:59.052Z,0.50
2019-05-29T09:21:03.952Z,0.40
2019-05-29T09:26:15.996Z,0.60
2019-05-29T09:31:15.007Z,0.62
2019-05-29T09:36:18.633Z,0.90
2019-05-29T09:41:23.537Z,0.62
2019-05-29T09:46:26.911Z,0.80
2019-05-29T09:51:30.081Z,0.90
2019-05-29T09:56:33.183Z,0.80
2019-05-29T10:01:36.365Z,0.80
2019-05-29T10:06:39.699Z,1.10
2019-05-29T10:11:42.791Z,1.07
2019-05-29T10:16:45.934Z,1.05
2019-05-29T10:21:48.960Z,0.80
2019-05-29T10:26:52.050Z,0.90
2019-05-29T10:31:55.371Z,1.42
2019-05-29T10:36:58.457Z,1.10
2019-05-29T10:42:01.759Z,0.90
2019-05-29T10:47:05.030Z,1.00
2019-05-29T10:52:15.700Z,0.85
2019-05-29T10:57:13.250Z,1.20
2019-05-29T11:02:16.307Z,1.40
2019-05-29T11:07:19.464Z,1.37
2019-05-29T11:12:22.558Z,1.70
2019-05-29T11:17:26.750Z,1.80
2019-05-29T11:22:29.869Z,1.85
2019-05-29T11:27:32.996Z,1.70
2019-05-29T11:32:36.134Z,1.70
2019-05-29T11:37:39.211Z,2.37
2019-05-29T11:42:42.305Z,1.77
2019-05-29T11:47:45.393Z,1.90
2019-05-29T11:52:48.423Z,1.90
2019-05-29T11:57:51.861Z,2.55
2019-05-29T12:02:55.854Z,2.40
2019-05-29T12:07:59.602Z,2.60
2019-05-29T12:13:02.898Z,3.02
2019-05-29T12:18:23.178Z,3.45
2019-05-29T12:23:24.743Z,3.22
2019-05-29T12:28:16.038Z,2.58
2019-05-29T12:33:19.512Z,3.05
2019-05-29T12:38:22.600Z,3.77
2019-05-29T12:43:27.724Z,2.90
2019-05-29T12:48:30.714Z,3.15
2019-05-29T12:53:33.801Z,2.77
2019-05-29T12:58:36.889Z,3.90
2019-05-29T13:03:40.007Z,4.05
2019-05-29T13:08:44.411Z,3.17
2019-05-29T13:13:48.034Z,3.47
2019-05-29T13:18:51.172Z,3.58
2019-05-29T13:23:54.334Z,3.20
2019-05-29T13:28:57.625Z,4.37
2019-05-29T13:34:01.797Z,3.33
2019-05-29T13:39:07.446Z,3.40
2019-05-29T13:44:10.544Z,3.35
2019-05-29T13:49:13.924Z,3.70
2019-05-29T13:54:18.291Z,3.98
2019-05-29T13:59:23.255Z,4.53
2019-05-29T14:04:26.418Z,4.75
2019-05-29T14:09:29.573Z,4.50
2019-05-29T14:14:32.689Z,4.05
2019-05-29T14:19:35.763Z,3.90
2019-05-29T14:24:38.854Z,3.77
2019-05-29T14:29:41.939Z,3.60
2019-05-29T14:34:45.108Z,4.28
2019-05-29T14:39:48.203Z,3.58
2019-05-29T14:44:51.320Z,3.30
2019-05-29T14:49:54.699Z,3.87
2019-05-29T14:54:57.883Z,3.30
2019-05-29T15:00:02.069Z,4.33
2019-05-29T15:05:07.674Z,3.30
2019-05-29T15:10:24.047Z,3.70
2019-05-29T15:15:17.456Z,4.00
2019-05-29T15:20:22.386Z,3.80
2019-05-29T15:25:25.480Z,4.05
2019-05-29T15:30:28.555Z,3.40
2019-05-29T15:35:31.539Z,3.85
2019-05-29T15:40:34.646Z,3.40
2019-05-29T15:45:37.847Z,2.95
2019-05-29T15:50:41.080Z,3.05
2019-05-29T15:55:44.140Z,3.67
2019-05-29T16:00:47.796Z,3.33
2019-05-29T16:05:51.060Z,4.03
2019-05-29T16:10:54.203Z,3.62
2019-05-29T16:15:57.189Z,3.72
2019-05-29T16:21:00.367Z,3.30
2019-05-29T16:26:04.127Z,4.28
2019-05-29T16:31:07.248Z,2.35
2019-05-29T16:36:10.214Z,2.60
2019-05-29T16:41:13.783Z,2.83
2019-05-29T16:46:19.264Z,3.05
2019-05-29T16:51:23.070Z,3.65
2019-05-29T16:56:26.150Z,2.90
2019-05-29T17:01:29.208Z,2.77
2019-05-29T17:06:32.260Z,2.80
2019-05-29T17:11:35.521Z,3.30
2019-05-29T17:16:38.918Z,3.20
2019-05-29T17:21:42.374Z,3.02
2019-05-29T17:26:45.449Z,3.15
2019-05-29T17:31:48.424Z,2.50
2019-05-29T17:36:51.590Z,3.17
2019-05-29T17:41:54.632Z,2.83
2019-05-29T17:46:57.726Z,2.58
2019-05-29T17:52:00.827Z,2.90
2019-05-29T17:57:04.197Z,3.25
2019-05-29T18:02:07.781Z,3.52
2019-05-29T18:07:10.773Z,3.27
2019-05-29T18:12:13.910Z,2.33
2019-05-29T18:17:17.454Z,2.58
2019-05-29T18:22:21.609Z,4.95
2019-05-29T18:27:25.983Z,6.67
2019-05-29T18:32:29.343Z,9.05
2019-05-29T18:37:32.539Z,8.85
2019-05-29T18:42:36.118Z,9.15
2019-05-29T18:47:39.130Z,10.63
2019-05-29T18:52:42.685Z,9.05
2019-05-29T18:57:46.880Z,9.25
2019-05-29T19:02:49.944Z,9.43
2019-05-29T19:07:53.071Z,8.70
2019-05-29T19:12:56.240Z,8.43
2019-05-29T19:17:59.195Z,3.15
2019-05-29T19:23:02.356Z,2.67
2019-05-29T19:28:05.671Z,2.55
2019-05-29T19:33:08.855Z,3.10
2019-05-29T19:38:11.962Z,3.30
2019-05-29T19:43:15.304Z,2.80
2019-05-29T19:48:18.545Z,3.60
2019-05-29T19:53:25.264Z,3.26
2019-05-29T19:58:28.036Z,2.55
2019-05-29T20:03:36.574Z,3.06
2019-05-29T20:14:07.944Z,2.70
2019-05-29T20:19:33.849Z,0.90
2019-05-29T20:24:58.267Z,3.10
2019-05-29T20:30:01.492Z,2.85
2019-05-29T20:35:05.026Z,3.10
2019-05-29T20:40:08.845Z,3.08
2019-05-29T20:45:14.447Z,3.22
2019-05-29T20:50:17.985Z,2.67
2019-05-29T20:55:23.057Z,2.75
2019-05-29T21:00:26.152Z,3.35
2019-05-29T21:05:29.331Z,2.70
2019-05-29T21:10:33.110Z,3.50
2019-05-29T21:15:37.576Z,2.70
2019-05-29T21:20:40.895Z,3.65
2019-05-29T21:25:44.971Z,2.65
2019-05-29T21:30:48.558Z,2.87
2019-05-29T21:35:51.652Z,3.83
2019-05-29T21:40:54.766Z,3.37
2019-05-29T21:45:57.858Z,3.55
2019-05-29T21:51:01.058Z,3.25
2019-05-29T21:56:04.209Z,3.00
2019-05-29T22:01:07.309Z,4.03
2019-05-29T22:06:10.312Z,4.33
2019-05-29T22:11:15.456Z,4.00
2019-05-29T22:16:18.545Z,3.70
2019-05-29T22:21:21.662Z,4.65
2019-05-29T22:26:24.754Z,3.80
2019-05-29T22:31:27.839Z,4.00
2019-05-29T22:36:30.976Z,4.70
2019-05-29T22:41:34.049Z,4.80
2019-05-29T22:46:39.469Z,5.75
2019-05-29T22:51:42.552Z,5.17
2019-05-29T22:56:47.850Z,4.37
2019-05-29T23:01:52.022Z,5.70
2019-05-29T23:06:56.338Z,5.42
2019-05-29T23:12:00.442Z,5.62
2019-05-29T23:17:03.680Z,5.40
2019-05-29T23:22:06.755Z,4.80
2019-05-29T23:27:09.790Z,5.20
2019-05-29T23:32:12.861Z,4.65
2019-05-29T23:37:15.924Z,5.58
2019-05-29T23:42:19.009Z,4.75
2019-05-29T23:47:22.069Z,5.28
2019-05-29T23:52:25.260Z,4.90
2019-05-29T23:57:28.790Z,5.28
